sensor_id;sensor_type;location;lat;lon;timestamp;P1;durP1;ratioP1;P2;durP2;ratioP2
56363;SDS011;42261;52.094;4.326;2022-08-02T00:00:25;1.33;;;0.65;;
56363;SDS011;42261;52.094;4.326;2022-08-02T00:03:10;7.00;;;0.70;;
56363;SDS011;42261;52.094;4.326;2022-08-02T00:05:54;2.80;;;0.80;;
56363;SDS011;42261;52.094;4.326;2022-08-02T00:08:38;2.25;;;0.70;;
56363;SDS011;42261;52.094;4.326;2022-08-02T00:11:24;1.38;;;0.77;;
56363;SDS011;42261;52.094;4.326;2022-08-02T00:14:08;1.48;;;0.85;;
56363;SDS011;42261;52.094;4.326;2022-08-02T00:16:53;1.58;;;0.95;;
56363;SDS011;42261;52.094;4.326;2022-08-02T00:19:37;2.67;;;0.70;;
56363;SDS011;42261;52.094;4.326;2022-08-02T00:22:21;4.00;;;0.90;;
56363;SDS011;42261;52.094;4.326;2022-08-02T00:25:05;1.77;;;0.73;;
56363;SDS011;42261;52.094;4.326;2022-08-02T00:27:50;4.07;;;1.10;;
56363;SDS011;42261;52.094;4.326;2022-08-02T00:30:34;2.00;;;0.70;;
56363;SDS011;42261;52.094;4.326;2022-08-02T00:33:37;2.72;;;1.00;;
56363;SDS011;42261;52.094;4.326;2022-08-02T00:36:40;2.22;;;1.00;;
56363;SDS011;42261;52.094;4.326;2022-08-02T00:39:43;2.65;;;0.80;;
56363;SDS011;42261;52.094;4.326;2022-08-02T00:42:46;2.25;;;0.77;;
56363;SDS011;42261;52.094;4.326;2022-08-02T00:45:50;2.67;;;0.50;;
56363;SDS011;42261;52.094;4.326;2022-08-02T00:48:53;2.83;;;0.88;;
56363;SDS011;42261;52.094;4.326;2022-08-02T00:51:39;1.10;;;0.70;;
56363;SDS011;42261;52.094;4.326;2022-08-02T00:54:23;2.55;;;0.80;;
56363;SDS011;42261;52.094;4.326;2022-08-02T00:57:07;1.73;;;0.80;;
56363;SDS011;42261;52.094;4.326;2022-08-02T00:59:52;2.03;;;1.00;;
56363;SDS011;42261;52.094;4.326;2022-08-02T01:02:36;1.65;;;0.80;;
56363;SDS011;42261;52.094;4.326;2022-08-02T01:05:20;1.77;;;0.63;;
56363;SDS011;42261;52.094;4.326;2022-08-02T01:08:04;4.63;;;0.82;;
56363;SDS011;42261;52.094;4.326;2022-08-02T01:10:49;3.83;;;0.70;;
56363;SDS011;42261;52.094;4.326;2022-08-02T01:13:33;3.53;;;0.90;;
56363;SDS011;42261;52.094;4.326;2022-08-02T01:16:18;1.67;;;0.73;;
56363;SDS011;42261;52.094;4.326;2022-08-02T01:25:32;3.70;;;0.80;;
56363;SDS011;42261;52.094;4.326;2022-08-02T01:31:37;1.85;;;0.75;;
56363;SDS011;42261;52.094;4.326;2022-08-02T01:34:31;2.65;;;0.90;;
56363;SDS011;42261;52.094;4.326;2022-08-02T01:37:20;1.00;;;0.80;;
56363;SDS011;42261;52.094;4.326;2022-08-02T01:42:56;2.45;;;0.70;;
56363;SDS011;42261;52.094;4.326;2022-08-02T01:45:41;2.00;;;0.70;;
56363;SDS011;42261;52.094;4.326;2022-08-02T01:48:27;1.90;;;0.80;;
56363;SDS011;42261;52.094;4.326;2022-08-02T01:51:13;3.88;;;0.68;;
56363;SDS011;42261;52.094;4.326;2022-08-02T01:54:18;2.95;;;0.73;;
56363;SDS011;42261;52.094;4.326;2022-08-02T01:57:25;2.17;;;0.60;;
56363;SDS011;42261;52.094;4.326;2022-08-02T02:00:30;1.92;;;0.80;;
56363;SDS011;42261;52.094;4.326;2022-08-02T02:03:20;2.35;;;0.73;;
56363;SDS011;42261;52.094;4.326;2022-08-02T02:06:05;2.15;;;1.00;;
56363;SDS011;42261;52.094;4.326;2022-08-02T02:08:51;3.42;;;0.88;;
56363;SDS011;42261;52.094;4.326;2022-08-02T02:11:36;1.20;;;0.80;;
56363;SDS011;42261;52.094;4.326;2022-08-02T02:14:21;2.10;;;0.80;;
56363;SDS011;42261;52.094;4.326;2022-08-02T02:17:05;1.58;;;0.65;;
56363;SDS011;42261;52.094;4.326;2022-08-02T02:19:51;2.72;;;0.85;;
56363;SDS011;42261;52.094;4.326;2022-08-02T02:22:36;1.90;;;0.75;;
56363;SDS011;42261;52.094;4.326;2022-08-02T02:25:20;1.23;;;0.60;;
56363;SDS011;42261;52.094;4.326;2022-08-02T02:28:10;2.40;;;0.60;;
56363;SDS011;42261;52.094;4.326;2022-08-02T02:31:07;3.58;;;0.90;;
56363;SDS011;42261;52.094;4.326;2022-08-02T02:33:59;1.27;;;0.80;;
56363;SDS011;42261;52.094;4.326;2022-08-02T02:36:46;5.40;;;0.90;;
56363;SDS011;42261;52.094;4.326;2022-08-02T02:39:32;3.03;;;0.82;;
56363;SDS011;42261;52.094;4.326;2022-08-02T02:42:19;2.65;;;0.80;;
56363;SDS011;42261;52.094;4.326;2022-08-02T02:45:06;3.00;;;0.68;;
56363;SDS011;42261;52.094;4.326;2022-08-02T02:47:52;1.85;;;0.60;;
56363;SDS011;42261;52.094;4.326;2022-08-02T02:50:37;1.73;;;0.80;;
56363;SDS011;42261;52.094;4.326;2022-08-02T02:53:24;2.05;;;0.63;;
56363;SDS011;42261;52.094;4.326;2022-08-02T02:56:08;1.05;;;0.60;;
56363;SDS011;42261;52.094;4.326;2022-08-02T02:58:52;1.17;;;0.50;;
56363;SDS011;42261;52.094;4.326;2022-08-02T03:01:37;2.35;;;0.80;;
56363;SDS011;42261;52.094;4.326;2022-08-02T03:04:42;3.10;;;1.00;;
56363;SDS011;42261;52.094;4.326;2022-08-02T03:07:45;2.13;;;0.63;;
56363;SDS011;42261;52.094;4.326;2022-08-02T03:10:48;2.45;;;0.80;;
56363;SDS011;42261;52.094;4.326;2022-08-02T03:13:33;2.72;;;0.75;;
56363;SDS011;42261;52.094;4.326;2022-08-02T03:16:17;2.95;;;0.70;;
56363;SDS011;42261;52.094;4.326;2022-08-02T03:19:02;2.88;;;0.77;;
56363;SDS011;42261;52.094;4.326;2022-08-02T03:21:47;2.05;;;0.75;;
56363;SDS011;42261;52.094;4.326;2022-08-02T03:24:32;2.53;;;0.70;;
56363;SDS011;42261;52.094;4.326;2022-08-02T03:27:16;2.40;;;0.70;;
56363;SDS011;42261;52.094;4.326;2022-08-02T03:30:00;1.45;;;0.75;;
56363;SDS011;42261;52.094;4.326;2022-08-02T03:32:45;1.33;;;0.63;;
56363;SDS011;42261;52.094;4.326;2022-08-02T03:35:30;2.55;;;0.73;;
56363;SDS011;42261;52.094;4.326;2022-08-02T03:38:15;1.92;;;0.75;;
56363;SDS011;42261;52.094;4.326;2022-08-02T03:41:01;2.90;;;0.95;;
56363;SDS011;42261;52.094;4.326;2022-08-02T03:43:46;1.10;;;0.70;;
56363;SDS011;42261;52.094;4.326;2022-08-02T03:46:31;1.80;;;1.02;;
56363;SDS011;42261;52.094;4.326;2022-08-02T03:49:16;6.80;;;0.82;;
56363;SDS011;42261;52.094;4.326;2022-08-02T03:52:01;1.67;;;0.85;;
56363;SDS011;42261;52.094;4.326;2022-08-02T03:54:46;1.80;;;0.60;;
56363;SDS011;42261;52.094;4.326;2022-08-02T03:57:29;2.50;;;0.85;;
56363;SDS011;42261;52.094;4.326;2022-08-02T04:00:16;1.27;;;0.63;;
56363;SDS011;42261;52.094;4.326;2022-08-02T04:03:01;1.40;;;0.80;;
56363;SDS011;42261;52.094;4.326;2022-08-02T04:05:46;1.98;;;0.95;;
56363;SDS011;42261;52.094;4.326;2022-08-02T04:08:49;2.13;;;0.80;;
56363;SDS011;42261;52.094;4.326;2022-08-02T04:11:54;1.75;;;0.73;;
56363;SDS011;42261;52.094;4.326;2022-08-02T04:14:57;2.08;;;0.70;;
56363;SDS011;42261;52.094;4.326;2022-08-02T04:18:00;1.33;;;0.80;;
56363;SDS011;42261;52.094;4.326;2022-08-02T04:20:47;1.30;;;0.55;;
56363;SDS011;42261;52.094;4.326;2022-08-02T04:23:32;1.95;;;0.70;;
56363;SDS011;42261;52.094;4.326;2022-08-02T04:26:18;3.85;;;0.90;;
56363;SDS011;42261;52.094;4.326;2022-08-02T04:29:03;2.17;;;0.98;;
56363;SDS011;42261;52.094;4.326;2022-08-02T04:31:48;1.23;;;0.82;;
56363;SDS011;42261;52.094;4.326;2022-08-02T04:34:32;2.30;;;0.90;;
56363;SDS011;42261;52.094;4.326;2022-08-02T04:37:17;1.27;;;0.80;;
56363;SDS011;42261;52.094;4.326;2022-08-02T04:40:02;3.30;;;0.70;;
56363;SDS011;42261;52.094;4.326;2022-08-02T04:42:47;2.47;;;0.88;;
56363;SDS011;42261;52.094;4.326;2022-08-02T04:45:31;1.27;;;0.80;;
56363;SDS011;42261;52.094;4.326;2022-08-02T04:48:15;4.50;;;1.05;;
56363;SDS011;42261;52.094;4.326;2022-08-02T04:51:00;4.55;;;1.02;;
56363;SDS011;42261;52.094;4.326;2022-08-02T04:53:44;1.40;;;1.00;;
56363;SDS011;42261;52.094;4.326;2022-08-02T04:56:28;2.13;;;1.08;;
56363;SDS011;42261;52.094;4.326;2022-08-02T04:59:12;1.90;;;1.10;;
56363;SDS011;42261;52.094;4.326;2022-08-02T05:01:56;2.88;;;1.15;;
56363;SDS011;42261;52.094;4.326;2022-08-02T05:04:40;3.60;;;1.08;;
56363;SDS011;42261;52.094;4.326;2022-08-02T05:07:25;2.90;;;1.20;;
56363;SDS011;42261;52.094;4.326;2022-08-02T05:10:09;3.08;;;1.00;;
56363;SDS011;42261;52.094;4.326;2022-08-02T05:12:54;5.72;;;1.20;;
56363;SDS011;42261;52.094;4.326;2022-08-02T05:15:38;4.97;;;1.30;;
56363;SDS011;42261;52.094;4.326;2022-08-02T05:18:23;3.10;;;1.65;;
56363;SDS011;42261;52.094;4.326;2022-08-02T05:21:07;3.70;;;1.55;;
56363;SDS011;42261;52.094;4.326;2022-08-02T05:23:52;6.38;;;1.80;;
56363;SDS011;42261;52.094;4.326;2022-08-02T05:26:36;3.28;;;1.42;;
56363;SDS011;42261;52.094;4.326;2022-08-02T05:29:21;3.88;;;1.33;;
56363;SDS011;42261;52.094;4.326;2022-08-02T05:32:06;4.13;;;2.22;;
56363;SDS011;42261;52.094;4.326;2022-08-02T05:34:50;2.15;;;1.52;;
56363;SDS011;42261;52.094;4.326;2022-08-02T05:37:34;3.75;;;1.63;;
56363;SDS011;42261;52.094;4.326;2022-08-02T05:40:18;2.92;;;1.63;;
56363;SDS011;42261;52.094;4.326;2022-08-02T05:43:09;4.82;;;1.90;;
56363;SDS011;42261;52.094;4.326;2022-08-02T05:45:55;3.40;;;1.75;;
56363;SDS011;42261;52.094;4.326;2022-08-02T05:48:39;5.80;;;2.20;;
56363;SDS011;42261;52.094;4.326;2022-08-02T05:51:28;4.60;;;2.17;;
56363;SDS011;42261;52.094;4.326;2022-08-02T05:54:24;6.13;;;2.00;;
56363;SDS011;42261;52.094;4.326;2022-08-02T06:00:39;6.32;;;2.30;;
56363;SDS011;42261;52.094;4.326;2022-08-02T06:03:30;9.35;;;2.80;;
56363;SDS011;42261;52.094;4.326;2022-08-02T06:06:20;6.63;;;3.10;;
56363;SDS011;42261;52.094;4.326;2022-08-02T06:09:07;7.97;;;3.20;;
56363;SDS011;42261;52.094;4.326;2022-08-02T06:11:53;7.22;;;3.13;;
56363;SDS011;42261;52.094;4.326;2022-08-02T06:14:41;7.28;;;3.75;;
56363;SDS011;42261;52.094;4.326;2022-08-02T06:17:26;7.13;;;3.97;;
56363;SDS011;42261;52.094;4.326;2022-08-02T06:20:11;12.18;;;4.72;;
56363;SDS011;42261;52.094;4.326;2022-08-02T06:23:15;6.82;;;3.83;;
56363;SDS011;42261;52.094;4.326;2022-08-02T06:26:01;9.77;;;5.38;;
56363;SDS011;42261;52.094;4.326;2022-08-02T06:28:46;9.13;;;5.47;;
56363;SDS011;42261;52.094;4.326;2022-08-02T06:31:30;8.23;;;4.60;;
56363;SDS011;42261;52.094;4.326;2022-08-02T06:34:15;12.40;;;5.68;;
56363;SDS011;42261;52.094;4.326;2022-08-02T06:37:05;10.57;;;5.72;;
56363;SDS011;42261;52.094;4.326;2022-08-02T06:40:17;12.10;;;5.78;;
56363;SDS011;42261;52.094;4.326;2022-08-02T06:46:17;14.43;;;6.38;;
56363;SDS011;42261;52.094;4.326;2022-08-02T06:49:02;18.75;;;8.57;;
56363;SDS011;42261;52.094;4.326;2022-08-02T06:51:47;19.98;;;8.85;;
56363;SDS011;42261;52.094;4.326;2022-08-02T06:54:32;21.05;;;10.88;;
56363;SDS011;42261;52.094;4.326;2022-08-02T06:57:17;22.10;;;11.07;;
56363;SDS011;42261;52.094;4.326;2022-08-02T07:00:01;25.98;;;14.10;;
56363;SDS011;42261;52.094;4.326;2022-08-02T07:05:33;23.95;;;15.10;;
56363;SDS011;42261;52.094;4.326;2022-08-02T07:08:18;28.02;;;16.63;;
56363;SDS011;42261;52.094;4.326;2022-08-02T07:11:03;21.60;;;14.68;;
56363;SDS011;42261;52.094;4.326;2022-08-02T07:13:50;23.52;;;12.77;;
56363;SDS011;42261;52.094;4.326;2022-08-02T07:16:38;22.85;;;13.43;;
56363;SDS011;42261;52.094;4.326;2022-08-02T07:19:23;25.75;;;13.57;;
56363;SDS011;42261;52.094;4.326;2022-08-02T07:22:07;20.55;;;12.30;;
56363;SDS011;42261;52.094;4.326;2022-08-02T07:24:51;22.80;;;11.43;;
56363;SDS011;42261;52.094;4.326;2022-08-02T07:27:36;21.25;;;11.90;;
56363;SDS011;42261;52.094;4.326;2022-08-02T07:30:21;19.73;;;10.93;;
56363;SDS011;42261;52.094;4.326;2022-08-02T07:33:05;19.00;;;9.15;;
56363;SDS011;42261;52.094;4.326;2022-08-02T07:35:49;16.85;;;9.48;;
56363;SDS011;42261;52.094;4.326;2022-08-02T07:38:33;20.08;;;10.45;;
56363;SDS011;42261;52.094;4.326;2022-08-02T07:41:17;16.05;;;8.93;;
56363;SDS011;42261;52.094;4.326;2022-08-02T07:44:01;12.15;;;8.80;;
56363;SDS011;42261;52.094;4.326;2022-08-02T07:46:46;14.23;;;8.70;;
56363;SDS011;42261;52.094;4.326;2022-08-02T07:49:30;14.65;;;8.20;;
56363;SDS011;42261;52.094;4.326;2022-08-02T07:52:16;17.77;;;9.95;;
56363;SDS011;42261;52.094;4.326;2022-08-02T07:55:00;13.02;;;8.50;;
56363;SDS011;42261;52.094;4.326;2022-08-02T07:57:45;13.10;;;8.55;;
56363;SDS011;42261;52.094;4.326;2022-08-02T08:00:29;12.73;;;8.18;;
56363;SDS011;42261;52.094;4.326;2022-08-02T08:03:13;14.07;;;8.38;;
56363;SDS011;42261;52.094;4.326;2022-08-02T08:05:58;15.52;;;7.63;;
56363;SDS011;42261;52.094;4.326;2022-08-02T08:08:42;14.75;;;7.80;;
56363;SDS011;42261;52.094;4.326;2022-08-02T08:11:27;11.95;;;7.03;;
56363;SDS011;42261;52.094;4.326;2022-08-02T08:14:11;14.45;;;7.03;;
56363;SDS011;42261;52.094;4.326;2022-08-02T08:16:55;11.48;;;6.07;;
56363;SDS011;42261;52.094;4.326;2022-08-02T08:19:40;14.93;;;7.65;;
56363;SDS011;42261;52.094;4.326;2022-08-02T08:22:24;12.10;;;7.63;;
56363;SDS011;42261;52.094;4.326;2022-08-02T08:25:09;10.20;;;6.70;;
56363;SDS011;42261;52.094;4.326;2022-08-02T08:28:11;14.65;;;6.55;;
56363;SDS011;42261;52.094;4.326;2022-08-02T08:31:14;9.98;;;6.00;;
56363;SDS011;42261;52.094;4.326;2022-08-02T08:33:59;11.32;;;7.35;;
56363;SDS011;42261;52.094;4.326;2022-08-02T08:36:43;10.23;;;6.07;;
56363;SDS011;42261;52.094;4.326;2022-08-02T08:39:28;10.40;;;6.43;;
56363;SDS011;42261;52.094;4.326;2022-08-02T08:42:13;8.80;;;6.03;;
56363;SDS011;42261;52.094;4.326;2022-08-02T08:44:58;11.60;;;6.22;;
56363;SDS011;42261;52.094;4.326;2022-08-02T08:48:12;10.57;;;6.93;;
56363;SDS011;42261;52.094;4.326;2022-08-02T08:51:03;10.55;;;5.57;;
56363;SDS011;42261;52.094;4.326;2022-08-02T08:53:50;11.10;;;5.85;;
56363;SDS011;42261;52.094;4.326;2022-08-02T08:56:36;7.38;;;5.40;;
56363;SDS011;42261;52.094;4.326;2022-08-02T08:59:22;10.35;;;4.60;;
56363;SDS011;42261;52.094;4.326;2022-08-02T09:02:06;10.90;;;4.15;;
56363;SDS011;42261;52.094;4.326;2022-08-02T09:04:51;7.97;;;4.45;;
56363;SDS011;42261;52.094;4.326;2022-08-02T09:07:35;8.23;;;4.32;;
56363;SDS011;42261;52.094;4.326;2022-08-02T09:10:42;6.88;;;3.95;;
56363;SDS011;42261;52.094;4.326;2022-08-02T09:13:27;8.07;;;3.72;;
56363;SDS011;42261;52.094;4.326;2022-08-02T09:16:12;7.45;;;3.92;;
56363;SDS011;42261;52.094;4.326;2022-08-02T09:18:57;6.47;;;3.67;;
56363;SDS011;42261;52.094;4.326;2022-08-02T09:21:41;7.10;;;3.55;;
56363;SDS011;42261;52.094;4.326;2022-08-02T09:24:26;7.00;;;3.60;;
56363;SDS011;42261;52.094;4.326;2022-08-02T09:27:15;10.48;;;4.28;;
56363;SDS011;42261;52.094;4.326;2022-08-02T09:30:01;6.53;;;3.22;;
56363;SDS011;42261;52.094;4.326;2022-08-02T09:32:45;6.05;;;3.53;;
56363;SDS011;42261;52.094;4.326;2022-08-02T09:35:49;6.82;;;3.70;;
56363;SDS011;42261;52.094;4.326;2022-08-02T09:38:58;9.73;;;4.07;;
56363;SDS011;42261;52.094;4.326;2022-08-02T09:41:46;9.18;;;4.18;;
56363;SDS011;42261;52.094;4.326;2022-08-02T09:44:31;7.45;;;4.00;;
56363;SDS011;42261;52.094;4.326;2022-08-02T09:47:15;6.63;;;3.95;;
56363;SDS011;42261;52.094;4.326;2022-08-02T09:49:59;8.07;;;4.07;;
56363;SDS011;42261;52.094;4.326;2022-08-02T09:52:43;11.93;;;4.60;;
56363;SDS011;42261;52.094;4.326;2022-08-02T09:55:28;9.82;;;4.18;;
56363;SDS011;42261;52.094;4.326;2022-08-02T09:58:17;6.60;;;3.75;;
56363;SDS011;42261;52.094;4.326;2022-08-02T10:01:02;6.50;;;3.97;;
56363;SDS011;42261;52.094;4.326;2022-08-02T10:03:53;8.32;;;3.97;;
56363;SDS011;42261;52.094;4.326;2022-08-02T10:06:39;8.23;;;3.65;;
56363;SDS011;42261;52.094;4.326;2022-08-02T10:09:25;7.18;;;4.20;;
56363;SDS011;42261;52.094;4.326;2022-08-02T10:12:11;15.25;;;4.75;;
56363;SDS011;42261;52.094;4.326;2022-08-02T10:14:56;7.05;;;3.42;;
56363;SDS011;42261;52.094;4.326;2022-08-02T10:17:41;10.45;;;3.25;;
56363;SDS011;42261;52.094;4.326;2022-08-02T10:20:27;6.90;;;4.03;;
56363;SDS011;42261;52.094;4.326;2022-08-02T10:23:12;6.75;;;4.35;;
56363;SDS011;42261;52.094;4.326;2022-08-02T10:25:57;8.30;;;4.43;;
56363;SDS011;42261;52.094;4.326;2022-08-02T10:28:45;7.88;;;4.28;;
56363;SDS011;42261;52.094;4.326;2022-08-02T10:31:33;10.10;;;6.47;;
56363;SDS011;42261;52.094;4.326;2022-08-02T10:35:03;6.72;;;3.78;;
56363;SDS011;42261;52.094;4.326;2022-08-02T10:37:59;8.00;;;3.80;;
56363;SDS011;42261;52.094;4.326;2022-08-02T10:46:22;5.72;;;3.58;;
56363;SDS011;42261;52.094;4.326;2022-08-02T10:49:12;8.23;;;3.65;;
56363;SDS011;42261;52.094;4.326;2022-08-02T10:52:06;9.45;;;3.47;;
56363;SDS011;42261;52.094;4.326;2022-08-02T10:54:55;9.07;;;3.50;;
56363;SDS011;42261;52.094;4.326;2022-08-02T10:57:41;7.68;;;3.38;;
56363;SDS011;42261;52.094;4.326;2022-08-02T11:00:25;9.55;;;4.10;;
56363;SDS011;42261;52.094;4.326;2022-08-02T11:06:13;6.82;;;3.30;;
56363;SDS011;42261;52.094;4.326;2022-08-02T11:12:13;9.00;;;3.25;;
56363;SDS011;42261;52.094;4.326;2022-08-02T11:15:00;5.57;;;2.58;;
56363;SDS011;42261;52.094;4.326;2022-08-02T11:17:53;4.22;;;2.50;;
56363;SDS011;42261;52.094;4.326;2022-08-02T11:20:38;7.65;;;3.00;;
56363;SDS011;42261;52.094;4.326;2022-08-02T11:23:37;5.32;;;2.15;;
56363;SDS011;42261;52.094;4.326;2022-08-02T11:29:12;4.88;;;1.70;;
56363;SDS011;42261;52.094;4.326;2022-08-02T11:31:57;3.03;;;1.80;;
56363;SDS011;42261;52.094;4.326;2022-08-02T11:34:43;4.13;;;1.70;;
56363;SDS011;42261;52.094;4.326;2022-08-02T11:37:35;5.15;;;1.80;;
56363;SDS011;42261;52.094;4.326;2022-08-02T11:40:20;3.72;;;1.50;;
56363;SDS011;42261;52.094;4.326;2022-08-02T11:43:24;2.72;;;1.55;;
56363;SDS011;42261;52.094;4.326;2022-08-02T11:46:33;5.38;;;1.88;;
56363;SDS011;42261;52.094;4.326;2022-08-02T11:49:35;6.13;;;2.92;;
56363;SDS011;42261;52.094;4.326;2022-08-02T11:52:39;3.13;;;1.60;;
56363;SDS011;42261;52.094;4.326;2022-08-02T11:55:27;4.80;;;1.20;;
56363;SDS011;42261;52.094;4.326;2022-08-02T11:58:12;4.72;;;1.00;;
56363;SDS011;42261;52.094;4.326;2022-08-02T12:00:56;4.68;;;1.50;;
56363;SDS011;42261;52.094;4.326;2022-08-02T12:03:40;3.33;;;1.05;;
56363;SDS011;42261;52.094;4.326;2022-08-02T12:06:26;3.47;;;1.35;;
56363;SDS011;42261;52.094;4.326;2022-08-02T12:09:11;3.67;;;1.45;;
56363;SDS011;42261;52.094;4.326;2022-08-02T12:11:57;3.67;;;1.48;;
56363;SDS011;42261;52.094;4.326;2022-08-02T12:14:44;5.15;;;1.02;;
56363;SDS011;42261;52.094;4.326;2022-08-02T12:17:28;2.65;;;1.40;;
56363;SDS011;42261;52.094;4.326;2022-08-02T12:20:35;2.50;;;1.27;;
56363;SDS011;42261;52.094;4.326;2022-08-02T12:23:21;3.70;;;1.95;;
56363;SDS011;42261;52.094;4.326;2022-08-02T12:26:06;4.03;;;1.80;;
56363;SDS011;42261;52.094;4.326;2022-08-02T12:28:56;6.25;;;1.90;;
56363;SDS011;42261;52.094;4.326;2022-08-02T12:31:43;4.18;;;1.70;;
56363;SDS011;42261;52.094;4.326;2022-08-02T12:34:31;8.90;;;2.05;;
56363;SDS011;42261;52.094;4.326;2022-08-02T12:37:16;6.50;;;1.45;;
56363;SDS011;42261;52.094;4.326;2022-08-02T12:40:24;4.40;;;1.40;;
56363;SDS011;42261;52.094;4.326;2022-08-02T12:43:20;5.07;;;1.90;;
56363;SDS011;42261;52.094;4.326;2022-08-02T12:46:06;5.55;;;1.90;;
56363;SDS011;42261;52.094;4.326;2022-08-02T12:48:58;4.97;;;1.55;;
56363;SDS011;42261;52.094;4.326;2022-08-02T12:51:43;6.50;;;1.63;;
56363;SDS011;42261;52.094;4.326;2022-08-02T12:54:37;5.90;;;2.10;;
56363;SDS011;42261;52.094;4.326;2022-08-02T12:57:22;6.40;;;1.60;;
56363;SDS011;42261;52.094;4.326;2022-08-02T13:00:07;6.82;;;1.88;;
56363;SDS011;42261;52.094;4.326;2022-08-02T13:02:52;4.05;;;2.08;;
56363;SDS011;42261;52.094;4.326;2022-08-02T13:05:37;8.32;;;2.00;;
56363;SDS011;42261;52.094;4.326;2022-08-02T13:08:22;7.55;;;2.15;;
56363;SDS011;42261;52.094;4.326;2022-08-02T13:11:07;6.32;;;2.05;;
56363;SDS011;42261;52.094;4.326;2022-08-02T13:13:51;7.57;;;2.22;;
56363;SDS011;42261;52.094;4.326;2022-08-02T13:16:35;4.45;;;1.55;;
56363;SDS011;42261;52.094;4.326;2022-08-02T13:19:20;6.45;;;2.05;;
56363;SDS011;42261;52.094;4.326;2022-08-02T13:22:04;4.85;;;1.50;;
56363;SDS011;42261;52.094;4.326;2022-08-02T13:24:48;4.20;;;1.80;;
56363;SDS011;42261;52.094;4.326;2022-08-02T13:27:34;6.95;;;2.28;;
56363;SDS011;42261;52.094;4.326;2022-08-02T13:30:19;5.53;;;2.08;;
56363;SDS011;42261;52.094;4.326;2022-08-02T13:33:03;5.40;;;2.00;;
56363;SDS011;42261;52.094;4.326;2022-08-02T13:35:47;7.90;;;2.33;;
56363;SDS011;42261;52.094;4.326;2022-08-02T13:38:32;7.45;;;2.45;;
56363;SDS011;42261;52.094;4.326;2022-08-02T13:41:16;11.38;;;2.40;;
56363;SDS011;42261;52.094;4.326;2022-08-02T13:44:19;8.95;;;2.60;;
56363;SDS011;42261;52.094;4.326;2022-08-02T13:47:23;6.40;;;2.17;;
56363;SDS011;42261;52.094;4.326;2022-08-02T13:50:26;6.43;;;2.20;;
56363;SDS011;42261;52.094;4.326;2022-08-02T13:53:10;8.48;;;2.53;;
56363;SDS011;42261;52.094;4.326;2022-08-02T13:55:54;7.72;;;3.40;;
56363;SDS011;42261;52.094;4.326;2022-08-02T13:58:40;8.15;;;2.00;;
56363;SDS011;42261;52.094;4.326;2022-08-02T14:01:25;11.32;;;2.05;;
56363;SDS011;42261;52.094;4.326;2022-08-02T14:04:09;6.18;;;2.03;;
56363;SDS011;42261;52.094;4.326;2022-08-02T14:06:53;8.52;;;2.10;;
56363;SDS011;42261;52.094;4.326;2022-08-02T14:09:38;8.15;;;1.95;;
56363;SDS011;42261;52.094;4.326;2022-08-02T14:12:22;6.80;;;2.10;;
56363;SDS011;42261;52.094;4.326;2022-08-02T14:15:06;6.35;;;1.83;;
56363;SDS011;42261;52.094;4.326;2022-08-02T14:17:51;7.68;;;1.80;;
56363;SDS011;42261;52.094;4.326;2022-08-02T14:20:35;8.02;;;2.08;;
56363;SDS011;42261;52.094;4.326;2022-08-02T14:23:19;8.85;;;2.13;;
56363;SDS011;42261;52.094;4.326;2022-08-02T14:26:04;4.55;;;1.50;;
56363;SDS011;42261;52.094;4.326;2022-08-02T14:28:52;8.23;;;2.00;;
56363;SDS011;42261;52.094;4.326;2022-08-02T14:31:36;7.85;;;1.60;;
56363;SDS011;42261;52.094;4.326;2022-08-02T14:34:20;7.68;;;1.77;;
56363;SDS011;42261;52.094;4.326;2022-08-02T14:37:04;7.03;;;1.80;;
56363;SDS011;42261;52.094;4.326;2022-08-02T14:39:49;9.98;;;1.65;;
56363;SDS011;42261;52.094;4.326;2022-08-02T14:42:33;4.40;;;1.27;;
56363;SDS011;42261;52.094;4.326;2022-08-02T14:45:18;10.38;;;2.20;;
56363;SDS011;42261;52.094;4.326;2022-08-02T14:48:04;6.57;;;1.55;;
56363;SDS011;42261;52.094;4.326;2022-08-02T14:50:49;7.30;;;1.92;;
56363;SDS011;42261;52.094;4.326;2022-08-02T14:53:51;4.22;;;1.23;;
56363;SDS011;42261;52.094;4.326;2022-08-02T14:56:54;6.97;;;1.10;;
56363;SDS011;42261;52.094;4.326;2022-08-02T14:59:58;8.32;;;1.38;;
56363;SDS011;42261;52.094;4.326;2022-08-02T15:02:44;6.72;;;1.20;;
56363;SDS011;42261;52.094;4.326;2022-08-02T15:05:31;5.82;;;1.40;;
56363;SDS011;42261;52.094;4.326;2022-08-02T15:08:15;5.53;;;1.65;;
56363;SDS011;42261;52.094;4.326;2022-08-02T15:10:59;6.03;;;1.52;;
56363;SDS011;42261;52.094;4.326;2022-08-02T15:13:43;6.82;;;1.15;;
56363;SDS011;42261;52.094;4.326;2022-08-02T15:16:27;7.10;;;1.50;;
56363;SDS011;42261;52.094;4.326;2022-08-02T15:19:13;4.95;;;1.35;;
56363;SDS011;42261;52.094;4.326;2022-08-02T15:21:58;8.20;;;1.80;;
56363;SDS011;42261;52.094;4.326;2022-08-02T15:24:43;7.20;;;1.15;;
56363;SDS011;42261;52.094;4.326;2022-08-02T15:27:27;8.15;;;1.75;;
56363;SDS011;42261;52.094;4.326;2022-08-02T15:30:11;6.43;;;2.15;;
56363;SDS011;42261;52.094;4.326;2022-08-02T15:32:56;9.32;;;1.65;;
56363;SDS011;42261;52.094;4.326;2022-08-02T15:35:40;6.32;;;1.23;;
56363;SDS011;42261;52.094;4.326;2022-08-02T15:38:24;7.80;;;1.65;;
56363;SDS011;42261;52.094;4.326;2022-08-02T15:41:08;6.38;;;1.13;;
56363;SDS011;42261;52.094;4.326;2022-08-02T15:43:52;9.55;;;1.58;;
56363;SDS011;42261;52.094;4.326;2022-08-02T15:46:36;7.57;;;1.73;;
56363;SDS011;42261;52.094;4.326;2022-08-02T15:49:21;13.73;;;2.35;;
56363;SDS011;42261;52.094;4.326;2022-08-02T15:52:06;11.50;;;1.80;;
56363;SDS011;42261;52.094;4.326;2022-08-02T15:54:50;7.88;;;1.27;;
56363;SDS011;42261;52.094;4.326;2022-08-02T15:57:34;8.80;;;1.42;;
56363;SDS011;42261;52.094;4.326;2022-08-02T16:00:18;6.82;;;1.42;;
56363;SDS011;42261;52.094;4.326;2022-08-02T16:03:22;9.77;;;1.67;;
56363;SDS011;42261;52.094;4.326;2022-08-02T16:06:25;9.27;;;1.42;;
56363;SDS011;42261;52.094;4.326;2022-08-02T16:09:09;5.97;;;1.63;;
56363;SDS011;42261;52.094;4.326;2022-08-02T16:11:53;9.38;;;1.33;;
56363;SDS011;42261;52.094;4.326;2022-08-02T16:14:37;7.25;;;1.60;;
56363;SDS011;42261;52.094;4.326;2022-08-02T16:17:21;11.15;;;1.80;;
56363;SDS011;42261;52.094;4.326;2022-08-02T16:20:06;12.18;;;1.65;;
56363;SDS011;42261;52.094;4.326;2022-08-02T16:22:51;10.93;;;1.58;;
56363;SDS011;42261;52.094;4.326;2022-08-02T16:25:37;12.50;;;1.77;;
56363;SDS011;42261;52.094;4.326;2022-08-02T16:28:21;4.43;;;1.23;;
56363;SDS011;42261;52.094;4.326;2022-08-02T16:31:05;5.78;;;1.83;;
56363;SDS011;42261;52.094;4.326;2022-08-02T16:33:49;7.45;;;1.15;;
56363;SDS011;42261;52.094;4.326;2022-08-02T16:36:34;4.78;;;1.20;;
56363;SDS011;42261;52.094;4.326;2022-08-02T16:39:18;6.95;;;1.25;;
56363;SDS011;42261;52.094;4.326;2022-08-02T16:42:02;4.32;;;1.10;;
56363;SDS011;42261;52.094;4.326;2022-08-02T16:44:47;5.47;;;1.50;;
56363;SDS011;42261;52.094;4.326;2022-08-02T16:47:31;4.22;;;1.20;;
56363;SDS011;42261;52.094;4.326;2022-08-02T16:50:16;7.65;;;1.50;;
56363;SDS011;42261;52.094;4.326;2022-08-02T16:53:18;9.45;;;1.30;;
56363;SDS011;42261;52.094;4.326;2022-08-02T16:56:03;7.82;;;1.30;;
56363;SDS011;42261;52.094;4.326;2022-08-02T16:58:48;5.25;;;1.30;;
56363;SDS011;42261;52.094;4.326;2022-08-02T17:01:32;5.05;;;1.23;;
56363;SDS011;42261;52.094;4.326;2022-08-02T17:04:16;3.17;;;1.00;;
56363;SDS011;42261;52.094;4.326;2022-08-02T17:07:01;3.70;;;1.17;;
56363;SDS011;42261;52.094;4.326;2022-08-02T17:09:45;5.43;;;1.10;;
56363;SDS011;42261;52.094;4.326;2022-08-02T17:12:30;4.93;;;0.95;;
56363;SDS011;42261;52.094;4.326;2022-08-02T17:15:15;4.10;;;1.20;;
56363;SDS011;42261;52.094;4.326;2022-08-02T17:17:59;10.20;;;1.15;;
56363;SDS011;42261;52.094;4.326;2022-08-02T17:20:44;6.20;;;1.52;;
56363;SDS011;42261;52.094;4.326;2022-08-02T17:23:30;4.28;;;1.08;;